Time;durP1;ratioP1;P1;durP2;ratioP2;P2;SDS_P1;SDS_P2;PMS_P1;PMS_P2;Temp;Humidity;BMP_temperature;BMP_pressure;BME280_temperature;BME280_humidity;BME280_pressure;Samples;Min_cycle;Max_cycle;Signal;HPM_P1;HPM_P2
2023/08/19 00:01:52;;;;;;;;;;;;;;;;;;5071769;28;20333;-64
2023/08/19 00:04:18;;;;;;;;;;;;;;;;;;5067131;28;19917;-63
2023/08/19 00:06:44;;;;;;;;;;;;;;;;;;5070131;28;19959;-63
2023/08/19 00:09:10;;;;;;;;;;;;;;;;;;5058052;28;20062;-63
2023/08/19 00:11:35;;;;;;;;;;;;;;;;;;5053904;28;19921;-63
2023/08/19 00:14:03;;;;;;;;;;;;;;;;;;5058305;28;19994;-66
2023/08/19 00:16:29;;;;;;;;;;;;;;;;;;5072637;28;19909;-63
2023/08/19 00:18:55;;;;;;;;;;;;;;;;;;5072942;28;19915;-68
2023/08/19 00:21:21;;;;;;;;;;;;;;;;;;5067339;28;19928;-68
2023/08/19 00:23:46;;;;;;;;;;;;;;;;;;5073658;28;20019;-68
2023/08/19 00:26:12;;;;;;;;;;;;;;;;;;5072637;28;19908;-68
2023/08/19 00:28:38;;;;;;;;;;;;;;;;;;5064075;28;19952;-68
2023/08/19 00:31:04;;;;;;;;;;;;;;;;;;5060757;28;19915;-68
2023/08/19 00:33:30;;;;;;;;;;;;;;;;;;5071876;28;19922;-69
2023/08/19 00:35:56;;;;;;;;;;;;;;;;;;5062872;28;20253;-68
2023/08/19 00:38:22;;;;;;;;;;;;;;;;;;5065264;28;19962;-68
2023/08/19 00:40:48;;;;;;;;;;;;;;;;;;5071413;28;19946;-68
2023/08/19 00:43:14;;;;;;;;;;;;;;;;;;5058600;28;20380;-68
2023/08/19 00:45:39;;;;;;;;;;;;;;;;;;5061204;28;19920;-69
2023/08/19 00:48:06;;;;;;;;;;;;;;;;;;5067515;28;19947;-68
2023/08/19 00:50:32;;;;;;;;;;;;;;;;;;5065235;28;19965;-69
2023/08/19 00:52:58;;;;;;;;;;;;;;;;;;5062552;28;20363;-68
2023/08/19 00:55:24;;;;;;;;;;;;;;;;;;5056182;28;19917;-68
2023/08/19 00:57:49;;;;;;;;;;;;;;;;;;5060122;28;19908;-69
2023/08/19 01:00:15;;;;;;;;;;;;;;;;;;5061857;28;19947;-68
2023/08/19 01:02:41;;;;;;;;;;;;;;;;;;5064364;28;19967;-68
2023/08/19 01:05:08;;;;;;;;;;;;;;;;;;5071921;28;19966;-68
2023/08/19 01:07:34;;;;;;;;;;;;;;;;;;5064544;28;19989;-69
2023/08/19 01:10:00;;;;;;;;;;;;;;;;;;5072375;28;19916;-69
2023/08/19 01:12:25;;;;;;;;;;;;;;;;;;5063437;28;20011;-68
2023/08/19 01:14:51;;;;;;;;;;;;;;;;;;5071532;28;19916;-68
2023/08/19 01:17:17;;;;;;;;;;;;;;;;;;5068405;28;20046;-68
2023/08/19 01:19:43;;;;;;;;;;;;;;;;;;5070775;28;19931;-66
2023/08/19 01:22:09;;;;;;;;;;;;;;;;;;5064014;28;19920;-68
2023/08/19 01:24:35;;;;;;;;;;;;;;;;;;5056435;28;19930;-68
2023/08/19 01:27:01;;;;;;;;;;;;;;;;;;5068385;28;19917;-68
2023/08/19 01:29:27;;;;;;;;;;;;;;;;;;5069093;28;19909;-67
2023/08/19 01:31:53;;;;;;;;;;;;;;;;;;5053761;28;20027;-62
2023/08/19 01:34:19;;;;;;;;;;;;;;;;;;5059058;28;19947;-62
2023/08/19 01:36:45;;;;;;;;;;;;;;;;;;5062723;28;20449;-63
2023/08/19 01:39:11;;;;;;;;;;;;;;;;;;5057303;28;19913;-62
2023/08/19 01:41:37;;;;;;;;;;;;;;;;;;5070614;28;19919;-63
2023/08/19 01:44:03;;;;;;;;;;;;;;;;;;5065022;28;19960;-63
2023/08/19 01:46:28;;;;;;;;;;;;;;;;;;5052787;28;19920;-62
2023/08/19 01:48:54;;;;;;;;;;;;;;;;;;5071530;28;19912;-62
2023/08/19 01:51:21;;;;;;;;;;;;;;;;;;5069969;28;19912;-63
2023/08/19 01:53:47;;;;;;;;;;;;;;;;;;5053798;28;19920;-62
2023/08/19 01:56:13;;;;;;;;;;;;;;;;;;5064306;28;19947;-62
2023/08/19 01:58:39;;;;;;;;;;;;;;;;;;5065592;28;20374;-63
2023/08/19 02:01:05;;;;;;;;;;;;;;;;;;5051790;28;19912;-63
2023/08/19 02:03:31;;;;;;;;;;;;;;;;;;5069550;28;20372;-62
2023/08/19 02:05:57;;;;;;;;;;;;;;;;;;5069779;28;19965;-62
2023/08/19 02:08:23;;;;;;;;;;;;;;;;;;5062418;28;20007;-63
2023/08/19 02:10:48;;;;;;;;;;;;;;;;;;5070791;28;20375;-64
2023/08/19 02:13:14;;;;;;;;;;;;;;;;;;5058753;28;20003;-62
2023/08/19 02:15:40;;;;;;;;;;;;;;;;;;5052096;28;19956;-62
2023/08/19 02:18:06;;;;;;;;;;;;;;;;;;5066035;28;20295;-63
2023/08/19 02:20:32;;;;;;;;;;;;;;;;;;5067303;28;19922;-62
2023/08/19 02:22:58;;;;;;;;;;;;;;;;;;5074792;28;19920;-62
2023/08/19 02:25:24;;;;;;;;;;;;;;;;;;5075742;28;19917;-63
2023/08/19 02:27:50;;;;;;;;;;;;;;;;;;5071648;28;19947;-62
2023/08/19 02:30:16;;;;;;;;;;;;;;;;;;5073865;28;20387;-63
2023/08/19 02:32:42;;;;;;;;;;;;;;;;;;5070110;28;20372;-62
2023/08/19 02:35:08;;;;;;;;;;;;;;;;;;5074655;28;20003;-63
2023/08/19 02:37:33;;;;;;;;;;;;;;;;;;5075109;28;19927;-68
2023/08/19 02:39:59;;;;;;;;;;;;;;;;;;5068043;28;19917;-68
2023/08/19 02:42:25;;;;;;;;;;;;;;;;;;5065012;28;20482;-68
2023/08/19 02:44:51;;;;;;;;;;;;;;;;;;5059155;28;19912;-67
2023/08/19 02:47:17;;;;;;;;;;;;;;;;;;5063372;28;19957;-68
2023/08/19 02:49:43;;;;;;;;;;;;;;;;;;5075261;28;19970;-68
2023/08/19 02:52:09;;;;;;;;;;;;;;;;;;5059385;28;19913;-68
2023/08/19 02:54:35;;;;;;;;;;;;;;;;;;5055208;28;19916;-68
2023/08/19 02:57:01;;;;;;;;;;;;;;;;;;5058459;28;19959;-67
2023/08/19 02:59:27;;;;;;;;;;;;;;;;;;5060892;28;19944;-68
2023/08/19 03:01:53;;;;;;;;;;;;;;;;;;5074813;28;19912;-68
2023/08/19 03:04:18;;;;;;;;;;;;;;;;;;5074320;28;19916;-68
2023/08/19 03:06:44;;;;;;;;;;;;;;;;;;5064511;28;20411;-68
2023/08/19 03:09:10;;;;;;;;;;;;;;;;;;5068989;28;19975;-67
2023/08/19 03:11:36;;;;;;;;;;;;;;;;;;5058287;28;21749;-67
2023/08/19 03:14:02;;;;;;;;;;;;;;;;;;5069706;28;20360;-68
2023/08/19 03:16:28;;;;;;;;;;;;;;;;;;5074930;28;19913;-68
2023/08/19 03:18:54;;;;;;;;;;;;;;;;;;5074586;28;19979;-68
2023/08/19 03:21:20;;;;;;;;;;;;;;;;;;5062847;28;19962;-67
2023/08/19 03:23:46;;;;;;;;;;;;;;;;;;5063190;28;19924;-68
2023/08/19 03:26:11;;;;;;;;;;;;;;;;;;5074656;28;20353;-68
2023/08/19 03:28:37;;;;;;;;;;;;;;;;;;5073326;28;19959;-68
2023/08/19 03:31:03;;;;;;;;;;;;;;;;;;5070609;28;20287;-68
2023/08/19 03:33:29;;;;;;;;;;;;;;;;;;5055361;28;19958;-68
2023/08/19 03:35:55;;;;;;;;;;;;;;;;;;5061944;28;19958;-67
2023/08/19 03:38:21;;;;;;;;;;;;;;;;;;5066900;28;20422;-68
2023/08/19 03:40:47;;;;;;;;;;;;;;;;;;5070035;28;19959;-68
2023/08/19 03:43:13;;;;;;;;;;;;;;;;;;5068916;28;19967;-68
2023/08/19 03:45:39;;;;;;;;;;;;;;;;;;5074218;28;20011;-68
2023/08/19 03:48:05;;;;;;;;;;;;;;;;;;5074154;28;20031;-68
2023/08/19 03:50:30;;;;;;;;;;;;;;;;;;5062300;28;20266;-68
2023/08/19 03:52:56;;;;;;;;;;;;;;;;;;5065299;28;19977;-67
2023/08/19 03:55:22;;;;;;;;;;;;;;;;;;5073107;28;20391;-68
2023/08/19 03:57:50;;;;;;;;;;;;;;;;;;5066027;28;19997;-68
2023/08/19 04:00:16;;;;;;;;;;;;;;;;;;5069420;28;20017;-67
2023/08/19 04:02:42;;;;;;;;;;;;;;;;;;5055146;28;20042;-67
2023/08/19 04:05:07;;;;;;;;;;;;;;;;;;5065193;28;19913;-68
2023/08/19 04:07:33;;;;;;;;;;;;;;;;;;5070356;28;20460;-67
2023/08/19 04:09:59;;;;;;;;;;;;;;;;;;5072257;28;20015;-67
2023/08/19 04:12:25;;;;;;;;;;;;;;;;;;5068463;28;19920;-67
2023/08/19 04:14:51;;;;;;;;;;;;;;;;;;5056826;28;19912;-67
2023/08/19 04:17:17;;;;;;;;;;;;;;;;;;5059817;28;19978;-68
2023/08/19 04:19:43;;;;;;;;;;;;;;;;;;5069654;28;19978;-67
2023/08/19 04:22:09;;;;;;;;;;;;;;;;;;5071232;28;19917;-67
2023/08/19 04:24:37;;;;;;;;;;;;;;;;;;5070166;28;20070;-68
2023/08/19 04:27:03;;;;;;;;;;;;;;;;;;5070790;28;19931;-67
2023/08/19 04:29:32;;;;;;;;;;;;;;;;;;5069951;28;19912;-68
2023/08/19 04:31:58;;;;;;;;;;;;;;;;;;5065500;28;19992;-67
2023/08/19 04:34:24;;;;;;;;;;;;;;;;;;5060037;28;20007;-68
2023/08/19 04:36:50;;;;;;;;;;;;;;;;;;5070335;28;19912;-68
2023/08/19 04:39:16;;;;;;;;;;;;;;;;;;5070470;28;20392;-68
2023/08/19 04:41:42;;;;;;;;;;;;;;;;;;5068810;28;19959;-68
2023/08/19 04:44:08;;;;;;;;;;;;;;;;;;5084412;28;19998;-68
2023/08/19 04:46:33;;;;;;;;;;;;;;;;;;5059395;28;19912;-68
2023/08/19 04:48:59;;;;;;;;;;;;;;;;;;5063765;28;19944;-68
2023/08/19 04:51:25;;;;;;;;;;;;;;;;;;5068051;28;19963;-67
2023/08/19 04:53:51;;;;;;;;;;;;;;;;;;5071974;28;20280;-68
2023/08/19 04:56:17;;;;;;;;;;;;;;;;;;5072255;28;20000;-68
2023/08/19 04:58:43;;;;;;;;;;;;;;;;;;5070390;28;19918;-62
2023/08/19 05:01:09;;;;;;;;;;;;;;;;;;5070337;28;19955;-63
2023/08/19 05:03:35;;;;;;;;;;;;;;;;;;5060212;28;20357;-63
2023/08/19 05:06:01;;;;;;;;;;;;;;;;;;5065922;28;20031;-63
2023/08/19 05:08:27;;;;;;;;;;;;;;;;;;5069873;28;19921;-62
2023/08/19 05:10:52;;;;;;;;;;;;;;;;;;5071244;28;20343;-62
2023/08/19 05:13:18;;;;;;;;;;;;;;;;;;5066522;28;19918;-62
2023/08/19 05:15:44;;;;;;;;;;;;;;;;;;5071654;28;19995;-62
2023/08/19 05:18:10;;;;;;;;;;;;;;;;;;5068585;28;20054;-62
2023/08/19 05:20:36;;;;;;;;;;;;;;;;;;5081606;28;19932;-63
2023/08/19 05:23:02;;;;;;;;;;;;;;;;;;5063848;28;19932;-62
2023/08/19 05:25:29;;;;;;;;;;;;;;;;;;5071417;28;20265;-62
2023/08/19 05:27:56;;;;;;;;;;;;;;;;;;5069156;28;20331;-63
2023/08/19 05:30:22;;;;;;;;;;;;;;;;;;5070192;28;20012;-63
2023/08/19 05:32:48;;;;;;;;;;;;;;;;;;5063674;28;19948;-62
2023/08/19 05:35:14;;;;;;;;;;;;;;;;;;5057453;28;20364;-62
2023/08/19 05:37:40;;;;;;;;;;;;;;;;;;5068883;28;19913;-63
2023/08/19 05:40:05;;;;;;;;;;;;;;;;;;5062808;28;20322;-62
2023/08/19 05:42:31;;;;;;;;;;;;;;;;;;5065651;28;19913;-62
2023/08/19 05:44:57;;;;;;;;;;;;;;;;;;5065711;28;19963;-63
2023/08/19 05:47:23;;;;;;;;;;;;;;;;;;5060797;28;19919;-62
2023/08/19 05:49:49;;;;;;;;;;;;;;;;;;5070424;28;19912;-62
2023/08/19 05:52:15;;;;;;;;;;;;;;;;;;5071318;28;20287;-62
2023/08/19 05:54:41;;;;;;;;;;;;;;;;;;5075286;28;19919;-62
2023/08/19 05:57:07;;;;;;;;;;;;;;;;;;5065876;28;19920;-64
2023/08/19 05:59:33;;;;;;;;;;;;;;;;;;5075306;28;19909;-62
2023/08/19 06:01:59;;;;;;;;;;;;;;;;;;5068203;28;20521;-62
2023/08/19 06:04:24;;;;;;;;;;;;;;;;;;5071492;28;19995;-63
2023/08/19 06:06:50;;;;;;;;;;;;;;;;;;5062934;28;19913;-62
2023/08/19 06:09:16;;;;;;;;;;;;;;;;;;5068959;28;19955;-67
2023/08/19 06:11:42;;;;;;;;;;;;;;;;;;5067700;28;20003;-69
2023/08/19 06:14:08;;;;;;;;;;;;;;;;;;5065116;28;19916;-67
2023/08/19 06:16:34;;;;;;;;;;;;;;;;;;5076417;28;21473;-68
2023/08/19 06:19:00;;;;;;;;;;;;;;;;;;5065016;28;19962;-68
2023/08/19 06:21:26;;;;;;;;;;;;;;;;;;5072291;28;20011;-70
2023/08/19 06:23:52;;;;;;;;;;;;;;;;;;5072440;28;19932;-69
2023/08/19 06:26:18;;;;;;;;;;;;;;;;;;5074318;28;20331;-68
2023/08/19 06:28:44;;;;;;;;;;;;;;;;;;5069964;28;20011;-69
2023/08/19 06:31:10;;;;;;;;;;;;;;;;;;5069658;28;19922;-68
2023/08/19 06:33:36;;;;;;;;;;;;;;;;;;5062903;28;20373;-68
2023/08/19 06:36:02;;;;;;;;;;;;;;;;;;5074150;28;19908;-69
2023/08/19 06:38:28;;;;;;;;;;;;;;;;;;5068032;28;20417;-68
2023/08/19 06:40:54;;;;;;;;;;;;;;;;;;5073016;28;19912;-69
2023/08/19 06:43:21;;;;;;;;;;;;;;;;;;5064594;28;20273;-69
2023/08/19 06:45:46;;;;;;;;;;;;;;;;;;5062580;28;20363;-69
2023/08/19 06:48:12;;;;;;;;;;;;;;;;;;5061655;28;19994;-68
2023/08/19 06:50:38;;;;;;;;;;;;;;;;;;5069711;28;20007;-69
2023/08/19 06:53:09;;;;;;;;;;;;;;;;;;5072533;28;19912;-69
2023/08/19 06:55:34;;;;;;;;;;;;;;;;;;5072947;28;20265;-69
2023/08/19 06:58:00;;;;;;;;;;;;;;;;;;5066126;28;19955;-66
2023/08/19 07:00:26;;;;;;;;;;;;;;;;;;5057544;28;19917;-69
2023/08/19 07:02:52;;;;;;;;;;;;;;;;;;5071639;28;19917;-70
2023/08/19 07:05:18;;;;;;;;;;;;;;;;;;5067503;28;20019;-70
2023/08/19 07:07:47;;;;;;;;;;;;;;;;;;5066530;28;20012;-70
2023/08/19 07:10:13;;;;;;;;;;;;;;;;;;5068744;28;19987;-69
2023/08/19 07:12:39;;;;;;;;;;;;;;;;;;5071492;28;19943;-69
2023/08/19 07:15:11;;;;;;;;;;;;;;;;;;5072524;28;20018;-69
2023/08/19 07:17:37;;;;;;;;;;;;;;;;;;5068315;28;19965;-68
2023/08/19 07:20:03;;;;;;;;;;;;;;;;;;5062924;28;20401;-68
2023/08/19 07:22:29;;;;;;;;;;;;;;;;;;5069623;28;19960;-67
2023/08/19 07:24:55;;;;;;;;;;;;;;;;;;5071319;28;20368;-69
2023/08/19 07:27:21;;;;;;;;;;;;;;;;;;5063202;28;19912;-64
2023/08/19 07:29:51;;;;;;;;;;;;;;;;;;5064068;28;19921;-64
2023/08/19 07:32:17;;;;;;;;;;;;;;;;;;5066986;28;20315;-64
2023/08/19 07:34:44;;;;;;;;;;;;;;;;;;5070630;28;20010;-64
2023/08/19 07:37:10;;;;;;;;;;;;;;;;;;5068683;28;19959;-64
2023/08/19 07:39:36;;;;;;;;;;;;;;;;;;5071073;28;19927;-64
2023/08/19 07:42:02;;;;;;;;;;;;;;;;;;5064227;28;19913;-63
2023/08/19 07:44:29;;;;;;;;;;;;;;;;;;5067649;28;20318;-61
2023/08/19 07:46:55;;;;;;;;;;;;;;;;;;5066156;28;19920;-62
2023/08/19 07:49:21;;;;;;;;;;;;;;;;;;5058349;28;19975;-61
2023/08/19 07:51:47;;;;;;;;;;;;;;;;;;5064169;28;20387;-62
2023/08/19 07:54:14;;;;;;;;;;;;;;;;;;5087081;28;19962;-61
2023/08/19 07:56:40;;;;;;;;;;;;;;;;;;5066883;28;19920;-63
2023/08/19 07:59:06;;;;;;;;;;;;;;;;;;5069707;28;19916;-64
2023/08/19 08:01:32;;;;;;;;;;;;;;;;;;5067734;28;20330;-62
2023/08/19 08:03:58;;;;;;;;;;;;;;;;;;5058805;28;19960;-61
2023/08/19 08:06:24;;;;;;;;;;;;;;;;;;5066897;28;19995;-61
2023/08/19 08:08:50;;;;;;;;;;;;;;;;;;5064535;28;20341;-62
2023/08/19 08:11:16;;;;;;;;;;;;;;;;;;5068484;28;19969;-62
2023/08/19 08:13:42;;;;;;;;;;;;;;;;;;5067076;28;20387;-61
2023/08/19 08:16:08;;;;;;;;;;;;;;;;;;5066815;28;19951;-61
2023/08/19 08:18:34;;;;;;;;;;;;;;;;;;5065369;28;19916;-63
2023/08/19 08:21:00;;;;;;;;;;;;;;;;;;5060245;28;20662;-61
2023/08/19 08:23:26;;;;;;;;;;;;;;;;;;5064915;28;20011;-61
2023/08/19 08:25:52;;;;;;;;;;;;;;;;;;5063156;28;19916;-61
2023/08/19 08:28:17;;;;;;;;;;;;;;;;;;5056391;28;20364;-64
2023/08/19 08:30:43;;;;;;;;;;;;;;;;;;5059910;28;19959;-61
2023/08/19 08:33:09;;;;;;;;;;;;;;;;;;5062481;28;19919;-60
2023/08/19 08:35:35;;;;;;;;;;;;;;;;;;5066565;28;19913;-61
2023/08/19 08:38:01;;;;;;;;;;;;;;;;;;5070886;28;19959;-61
2023/08/19 08:40:27;;;;;;;;;;;;;;;;;;5071990;28;20287;-61
2023/08/19 08:42:53;;;;;;;;;;;;;;;;;;5060545;28;20599;-61
2023/08/19 08:45:19;;;;;;;;;;;;;;;;;;5071037;28;19913;-61
2023/08/19 08:47:45;;;;;;;;;;;;;;;;;;5060139;28;19938;-68
2023/08/19 08:50:11;;;;;;;;;;;;;;;;;;5070993;28;19992;-67
2023/08/19 08:52:39;;;;;;;;;;;;;;;;;;5060773;28;19920;-69
2023/08/19 08:55:05;;;;;;;;;;;;;;;;;;5058003;28;20384;-68
2023/08/19 08:57:31;;;;;;;;;;;;;;;;;;5057582;28;19955;-61
2023/08/19 08:59:56;;;;;;;;;;;;;;;;;;5051275;28;19956;-59
2023/08/19 09:02:22;;;;;;;;;;;;;;;;;;5064756;28;19920;-59
2023/08/19 09:04:48;;;;;;;;;;;;;;;;;;5069692;28;19959;-60
2023/08/19 09:07:14;;;;;;;;;;;;;;;;;;5071827;28;20365;-60
2023/08/19 09:09:41;;;;;;;;;;;;;;;;;;5063091;28;19917;-60
2023/08/19 09:12:07;;;;;;;;;;;;;;;;;;5060704;28;19922;-60
2023/08/19 09:14:32;;;;;;;;;;;;;;;;;;5058789;28;20436;-60
2023/08/19 09:16:58;;;;;;;;;;;;;;;;;;5055722;28;19919;-59
2023/08/19 09:19:24;;;;;;;;;;;;;;;;;;5071308;28;19917;-61
2023/08/19 09:21:50;;;;;;;;;;;;;;;;;;5061839;28;20443;-61
2023/08/19 09:24:16;;;;;;;;;;;;;;;;;;5057408;28;19928;-61
2023/08/19 09:26:42;;;;;;;;;;;;;;;;;;5056900;28;19920;-60
2023/08/19 09:29:08;;;;;;;;;;;;;;;;;;5063028;28;19963;-60
2023/08/19 09:31:34;;;;;;;;;;;;;;;;;;5067105;28;19998;-61
2023/08/19 09:34:00;;;;;;;;;;;;;;;;;;5070706;28;19917;-60
2023/08/19 09:36:26;;;;;;;;;;;;;;;;;;5070117;28;20375;-60
2023/08/19 09:38:53;;;;;;;;;;;;;;;;;;5064724;28;19912;-61
2023/08/19 09:41:19;;;;;;;;;;;;;;;;;;5067632;28;20336;-61
2023/08/19 09:43:45;;;;;;;;;;;;;;;;;;5068714;28;20019;-61
2023/08/19 09:46:11;;;;;;;;;;;;;;;;;;5057650;28;19919;-60
2023/08/19 09:48:38;;;;;;;;;;;;;;;;;;5065724;28;19955;-60
2023/08/19 09:51:04;;;;;;;;;;;;;;;;;;5070922;28;20322;-60
2023/08/19 09:53:31;;;;;;;;;;;;;;;;;;5070235;28;19970;-61
2023/08/19 09:55:57;;;;;;;;;;;;;;;;;;5065438;28;19920;-61
2023/08/19 09:58:25;;;;;;;;;;;;;;;;;;5057261;28;19912;-66
2023/08/19 10:00:50;;;;;;;;;;;;;;;;;;5065802;28;19913;-67
2023/08/19 10:03:16;;;;;;;;;;;;;;;;;;5070409;28;19970;-67
2023/08/19 10:05:42;;;;;;;;;;;;;;;;;;5071344;28;19908;-66
2023/08/19 10:08:08;;;;;;;;;;;;;;;;;;5057375;28;19957;-62
2023/08/19 10:10:34;;;;;;;;;;;;;;;;;;5061829;28;20061;-61
2023/08/19 10:13:00;;;;;;;;;;;;;;;;;;5050522;28;19912;-61
2023/08/19 10:15:26;;;;;;;;;;;;;;;;;;5067149;28;19981;-61
2023/08/19 10:17:52;;;;;;;;;;;;;;;;;;5056251;28;19972;-62
2023/08/19 10:20:18;;;;;;;;;;;;;;;;;;5061155;28;20376;-62
2023/08/19 10:22:44;;;;;;;;;;;;;;;;;;5070886;28;19916;-61
2023/08/19 10:25:10;;;;;;;;;;;;;;;;;;5063919;28;20015;-63
2023/08/19 10:27:36;;;;;;;;;;;;;;;;;;5055526;28;20269;-63
2023/08/19 10:30:02;;;;;;;;;;;;;;;;;;5051843;28;19913;-62
2023/08/19 10:32:27;;;;;;;;;;;;;;;;;;5058188;28;19951;-62
2023/08/19 10:34:53;;;;;;;;;;;;;;;;;;5060525;28;20352;-62
2023/08/19 10:37:19;;;;;;;;;;;;;;;;;;5060525;28;20356;-62
2023/08/19 10:39:46;;;;;;;;;;;;;;;;;;5067450;28;20051;-64
2023/08/19 10:42:12;;;;;;;;;;;;;;;;;;5066797;28;19966;-63
2023/08/19 10:44:38;;;;;;;;;;;;;;;;;;5066304;28;20364;-62
2023/08/19 10:47:04;;;;;;;;;;;;;;;;;;5072299;28;19955;-62
2023/08/19 10:49:30;;;;;;;;;;;;;;;;;;5070381;28;19996;-63
2023/08/19 10:52:06;;;;;;;;;;;;;;;;;;5068801;28;20011;-62
2023/08/19 10:54:34;;;;;;;;;;;;;;;;;;5060485;28;19912;-64
2023/08/19 10:57:00;;;;;;;;;;;;;;;;;;5067420;28;19916;-62
2023/08/19 10:59:26;;;;;;;;;;;;;;;;;;5070750;28;19922;-63
2023/08/19 11:01:54;;;;;;;;;;;;;;;;;;5067829;28;20637;-62
2023/08/19 11:04:20;;;;;;;;;;;;;;;;;;5065363;28;20260;-63
2023/08/19 11:06:46;;;;;;;;;;;;;;;;;;5068257;28;20015;-62
2023/08/19 11:09:11;;;;;;;;;;;;;;;;;;5059388;28;19981;-60
2023/08/19 11:11:37;;;;;;;;;;;;;;;;;;5060254;28;20053;-61
2023/08/19 11:14:03;;;;;;;;;;;;;;;;;;5063981;28;20338;-62
2023/08/19 11:16:29;;;;;;;;;;;;;;;;;;5067096;28;19920;-61
2023/08/19 11:18:56;;;;;;;;;;;;;;;;;;5064809;28;19913;-60
2023/08/19 11:21:24;;;;;;;;;;;;;;;;;;5071123;28;21719;-61
2023/08/19 11:23:51;;;;;;;;;;;;;;;;;;5068852;28;19942;-60
2023/08/19 11:26:17;;;;;;;;;;;;;;;;;;5066791;28;19943;-61
2023/08/19 11:28:43;;;;;;;;;;;;;;;;;;5061430;28;20007;-60
2023/08/19 11:31:09;;;;;;;;;;;;;;;;;;5061796;28;19976;-60
2023/08/19 11:33:35;;;;;;;;;;;;;;;;;;5065336;28;19928;-60
2023/08/19 11:36:01;;;;;;;;;;;;;;;;;;5066859;28;19909;-61
2023/08/19 11:38:27;;;;;;;;;;;;;;;;;;5071095;28;20361;-60
2023/08/19 11:40:53;;;;;;;;;;;;;;;;;;5066645;28;19944;-61
2023/08/19 11:43:18;;;;;;;;;;;;;;;;;;5072063;28;19920;-60
2023/08/19 11:45:44;;;;;;;;;;;;;;;;;;5072210;28;19908;-61
2023/08/19 11:48:10;;;;;;;;;;;;;;;;;;5067785;28;20359;-62
2023/08/19 11:50:36;;;;;;;;;;;;;;;;;;5055499;28;19919;-64
2023/08/19 11:53:02;;;;;;;;;;;;;;;;;;5060276;28;20011;-61
2023/08/19 11:55:28;;;;;;;;;;;;;;;;;;5059020;28;20023;-61
2023/08/19 11:57:54;;;;;;;;;;;;;;;;;;5072909;28;20003;-61
2023/08/19 12:00:20;;;;;;;;;;;;;;;;;;5072861;28;19921;-61
2023/08/19 12:02:46;;;;;;;;;;;;;;;;;;5073027;28;19921;-61
2023/08/19 12:05:12;;;;;;;;;;;;;;;;;;5067655;28;19969;-61
2023/08/19 12:07:38;;;;;;;;;;;;;;;;;;5065960;28;19956;-61
2023/08/19 12:10:04;;;;;;;;;;;;;;;;;;5063077;28;20428;-61
2023/08/19 12:12:29;;;;;;;;;;;;;;;;;;5067146;28;19919;-61
2023/08/19 12:14:55;;;;;;;;;;;;;;;;;;5062501;28;20021;-61
2023/08/19 12:17:21;;;;;;;;;;;;;;;;;;5072984;28;19935;-68
2023/08/19 12:19:47;;;;;;;;;;;;;;;;;;5069300;28;20001;-66
2023/08/19 12:22:13;;;;;;;;;;;;;;;;;;5076591;28;19991;-67
2023/08/19 12:24:39;;;;;;;;;;;;;;;;;;5068992;28;20098;-66
2023/08/19 12:27:05;;;;;;;;;;;;;;;;;;5066414;28;20455;-66
2023/08/19 12:29:31;;;;;;;;;;;;;;;;;;5060812;28;20021;-63
2023/08/19 12:31:57;;;;;;;;;;;;;;;;;;5061447;28;19917;-62
2023/08/19 12:34:23;;;;;;;;;;;;;;;;;;5060220;28;19913;-63
2023/08/19 12:36:49;;;;;;;;;;;;;;;;;;5070293;28;20000;-63
2023/08/19 12:39:14;;;;;;;;;;;;;;;;;;5070107;28;20378;-63
2023/08/19 12:41:43;;;;;;;;;;;;;;;;;;5062656;28;19913;-62
2023/08/19 12:44:09;;;;;;;;;;;;;;;;;;5065752;28;20319;-62
2023/08/19 12:46:35;;;;;;;;;;;;;;;;;;5071570;28;19957;-63
2023/08/19 12:49:01;;;;;;;;;;;;;;;;;;5064476;28;19913;-64
2023/08/19 12:51:29;;;;;;;;;;;;;;;;;;5070284;28;20375;-63
2023/08/19 12:53:55;;;;;;;;;;;;;;;;;;5071576;28;19912;-64
2023/08/19 12:56:21;;;;;;;;;;;;;;;;;;5071464;28;19916;-62
2023/08/19 12:58:47;;;;;;;;;;;;;;;;;;5059861;28;20061;-63
2023/08/19 13:01:13;;;;;;;;;;;;;;;;;;5058346;28;19916;-63
2023/08/19 13:03:39;;;;;;;;;;;;;;;;;;5065885;28;19959;-63
2023/08/19 13:06:05;;;;;;;;;;;;;;;;;;5065535;28;19917;-63
2023/08/19 13:08:31;;;;;;;;;;;;;;;;;;5065171;28;20346;-64
2023/08/19 13:10:57;;;;;;;;;;;;;;;;;;5061906;28;20174;-64
2023/08/19 13:13:22;;;;;;;;;;;;;;;;;;5070755;28;19917;-64
2023/08/19 13:15:48;;;;;;;;;;;;;;;;;;5061338;28;19953;-63
2023/08/19 13:18:18;;;;;;;;;;;;;;;;;;5059676;28;19963;-63
2023/08/19 13:20:44;;;;;;;;;;;;;;;;;;5068855;28;20254;-64
2023/08/19 13:23:10;;;;;;;;;;;;;;;;;;5068476;28;19963;-64
2023/08/19 13:25:36;;;;;;;;;;;;;;;;;;5069040;28;19913;-63
2023/08/19 13:28:02;;;;;;;;;;;;;;;;;;5071892;28;20392;-64
2023/08/19 13:30:28;;;;;;;;;;;;;;;;;;5069167;28;19955;-65
2023/08/19 13:32:54;;;;;;;;;;;;;;;;;;5063818;28;19989;-64
2023/08/19 13:35:21;;;;;;;;;;;;;;;;;;5068320;28;19920;-64
2023/08/19 13:37:47;;;;;;;;;;;;;;;;;;5064354;28;20358;-70
2023/08/19 13:40:13;;;;;;;;;;;;;;;;;;5063512;28;19913;-71
2023/08/19 13:42:38;;;;;;;;;;;;;;;;;;5066342;28;19926;-69
2023/08/19 13:45:04;;;;;;;;;;;;;;;;;;5069502;28;19952;-70
2023/08/19 13:47:30;;;;;;;;;;;;;;;;;;5068849;28;19924;-69
2023/08/19 13:49:56;;;;;;;;;;;;;;;;;;5067975;28;19948;-69
2023/08/19 13:52:22;;;;;;;;;;;;;;;;;;5070873;28;19913;-70
2023/08/19 13:54:48;;;;;;;;;;;;;;;;;;5070688;28;19918;-70
2023/08/19 13:57:14;;;;;;;;;;;;;;;;;;5063910;28;19964;-70
2023/08/19 13:59:40;;;;;;;;;;;;;;;;;;5066464;28;19918;-68
2023/08/19 14:02:06;;;;;;;;;;;;;;;;;;5065207;28;19912;-70
2023/08/19 14:04:31;;;;;;;;;;;;;;;;;;5069039;28;20043;-71
2023/08/19 14:06:57;;;;;;;;;;;;;;;;;;5065832;28;19955;-70
2023/08/19 14:09:23;;;;;;;;;;;;;;;;;;5069259;28;20003;-70
2023/08/19 14:11:50;;;;;;;;;;;;;;;;;;5068571;28;19920;-69
2023/08/19 14:14:16;;;;;;;;;;;;;;;;;;5073812;28;20328;-70
2023/08/19 14:16:42;;;;;;;;;;;;;;;;;;5071480;28;20002;-70
2023/08/19 14:19:08;;;;;;;;;;;;;;;;;;5069561;28;19912;-69
2023/08/19 14:21:34;;;;;;;;;;;;;;;;;;5077115;28;20388;-70
2023/08/19 14:24:00;;;;;;;;;;;;;;;;;;5068476;28;20564;-70
2023/08/19 14:26:28;;;;;;;;;;;;;;;;;;5065275;28;19912;-70
2023/08/19 14:28:54;;;;;;;;;;;;;;;;;;5064875;28;20280;-70
2023/08/19 14:31:20;;;;;;;;;;;;;;;;;;5072088;28;19995;-68
2023/08/19 14:33:46;;;;;;;;;;;;;;;;;;5068325;28;19966;-69
2023/08/19 14:36:11;;;;;;;;;;;;;;;;;;5073418;28;19960;-69
2023/08/19 14:38:37;;;;;;;;;;;;;;;;;;5065923;28;20372;-63
2023/08/19 14:41:03;;;;;;;;;;;;;;;;;;5073511;28;19965;-62
2023/08/19 14:43:29;;;;;;;;;;;;;;;;;;5074400;28;19962;-63
2023/08/19 14:45:55;;;;;;;;;;;;;;;;;;5071275;28;19979;-63
2023/08/19 14:48:21;;;;;;;;;;;;;;;;;;5065914;28;19935;-64
2023/08/19 14:50:47;;;;;;;;;;;;;;;;;;5073163;28;20507;-64
2023/08/19 14:53:13;;;;;;;;;;;;;;;;;;5074691;28;19916;-63
2023/08/19 14:55:39;;;;;;;;;;;;;;;;;;5068652;28;19940;-63
2023/08/19 14:58:05;;;;;;;;;;;;;;;;;;5070409;28;19956;-63
2023/08/19 15:00:31;;;;;;;;;;;;;;;;;;5071805;28;20342;-65
2023/08/19 15:02:58;;;;;;;;;;;;;;;;;;5057524;28;19919;-64
2023/08/19 15:05:25;;;;;;;;;;;;;;;;;;5059904;28;19970;-63
2023/08/19 15:07:51;;;;;;;;;;;;;;;;;;5070789;28;20368;-63
2023/08/19 15:10:17;;;;;;;;;;;;;;;;;;5072145;28;20400;-63
2023/08/19 15:12:43;;;;;;;;;;;;;;;;;;5070454;28;19990;-63
2023/08/19 15:15:11;;;;;;;;;;;;;;;;;;5067915;28;19958;-63
2023/08/19 15:17:37;;;;;;;;;;;;;;;;;;5071434;28;20053;-64
2023/08/19 15:20:04;;;;;;;;;;;;;;;;;;5073089;28;20039;-63
2023/08/19 15:22:30;;;;;;;;;;;;;;;;;;5070619;28;20352;-64
2023/08/19 15:24:57;;;;;;;;;;;;;;;;;;5057226;28;21578;-63
2023/08/19 15:27:23;;;;;;;;;;;;;;;;;;5068960;28;19940;-64
2023/08/19 15:29:49;;;;;;;;;;;;;;;;;;5069008;28;19969;-63
2023/08/19 15:32:15;;;;;;;;;;;;;;;;;;5071862;28;19951;-64
2023/08/19 15:34:41;;;;;;;;;;;;;;;;;;5064614;28;19958;-63
2023/08/19 15:37:07;;;;;;;;;;;;;;;;;;5073099;28;19988;-63
2023/08/19 15:39:33;;;;;;;;;;;;;;;;;;5073120;28;19908;-63
2023/08/19 15:41:59;;;;;;;;;;;;;;;;;;5063111;28;19955;-63
2023/08/19 15:44:25;;;;;;;;;;;;;;;;;;5073154;28;19935;-67
2023/08/19 15:46:51;;;;;;;;;;;;;;;;;;5072108;28;19959;-63
2023/08/19 15:49:17;;;;;;;;;;;;;;;;;;5070441;28;19947;-63
2023/08/19 15:51:43;;;;;;;;;;;;;;;;;;5073214;28;20332;-63
2023/08/19 15:54:09;;;;;;;;;;;;;;;;;;5068423;28;19923;-63
2023/08/19 15:56:35;;;;;;;;;;;;;;;;;;5061653;28;19947;-62
2023/08/19 15:59:01;;;;;;;;;;;;;;;;;;5061201;28;19925;-70
2023/08/19 16:01:27;;;;;;;;;;;;;;;;;;5069623;28;19971;-69
2023/08/19 16:03:52;;;;;;;;;;;;;;;;;;5056055;28;19924;-68
2023/08/19 16:06:18;;;;;;;;;;;;;;;;;;5065252;28;19920;-69
2023/08/19 16:08:44;;;;;;;;;;;;;;;;;;5065368;28;19959;-68
2023/08/19 16:11:10;;;;;;;;;;;;;;;;;;5066819;28;20091;-69
2023/08/19 16:13:36;;;;;;;;;;;;;;;;;;5063182;28;19991;-68
2023/08/19 16:16:02;;;;;;;;;;;;;;;;;;5072214;28;19947;-69
2023/08/19 16:18:28;;;;;;;;;;;;;;;;;;5065837;28;20023;-68
2023/08/19 16:20:54;;;;;;;;;;;;;;;;;;5063587;28;20028;-67
2023/08/19 16:23:20;;;;;;;;;;;;;;;;;;5069536;28;19916;-68
2023/08/19 16:25:46;;;;;;;;;;;;;;;;;;5063327;28;19912;-68
2023/08/19 16:28:12;;;;;;;;;;;;;;;;;;5063746;28;19959;-68
2023/08/19 16:30:37;;;;;;;;;;;;;;;;;;5071204;28;19996;-68
2023/08/19 16:33:03;;;;;;;;;;;;;;;;;;5071085;28;20440;-67
2023/08/19 16:35:29;;;;;;;;;;;;;;;;;;5070874;28;19916;-68
2023/08/19 16:37:55;;;;;;;;;;;;;;;;;;5064165;28;20336;-67